sensor_id;sensor_type;location;lat;lon;timestamp;pressure;altitude;pressure_sealevel;temperature;humidity
24302;BME280;12421;49.732;20.078;2023-07-16T00:05:40;96777.17;;;15.83;84.18
24302;BME280;12421;49.732;20.078;2023-07-16T00:15:44;96775.63;;;15.71;84.73
24302;BME280;12421;49.732;20.078;2023-07-16T00:25:48;96765.63;;;15.63;85.09
24302;BME280;12421;49.732;20.078;2023-07-16T00:35:54;96771.11;;;15.63;85.28
24302;BME280;12421;49.732;20.078;2023-07-16T00:45:58;96760.87;;;15.52;85.17
24302;BME280;12421;49.732;20.078;2023-07-16T00:56:02;96753.27;;;15.41;85.12
24302;BME280;12421;49.732;20.078;2023-07-16T02:24:55;96694.98;;;14.78;85.26
24302;BME280;12421;49.732;20.078;2023-07-16T04:17:43;96715.43;;;15.18;87.63
24302;BME280;12421;49.732;20.078;2023-07-16T04:39:39;96710.48;;;15.96;89.23
24302;BME280;12421;49.732;20.078;2023-07-16T05:13:16;96748.65;;;17.61;91.46
24302;BME280;12421;49.732;20.078;2023-07-16T05:35:27;96760.86;;;20.23;86.84
24302;BME280;12421;49.732;20.078;2023-07-16T05:46:11;96757.72;;;22.47;80.34
24302;BME280;12421;49.732;20.078;2023-07-16T05:56:35;96761.11;;;23.69;75.02
24302;BME280;12421;49.732;20.078;2023-07-16T06:07:53;96763.72;;;23.89;72.96
24302;BME280;12421;49.732;20.078;2023-07-16T06:18:40;96759.50;;;23.80;72.53
24302;BME280;12421;49.732;20.078;2023-07-16T06:29:36;96762.71;;;24.39;71.79
24302;BME280;12421;49.732;20.078;2023-07-16T06:51:12;96764.60;;;28.42;63.63
24302;BME280;12421;49.732;20.078;2023-07-16T07:01:40;96776.52;;;30.39;59.75
24302;BME280;12421;49.732;20.078;2023-07-16T07:12:16;96774.63;;;31.91;55.97
24302;BME280;12421;49.732;20.078;2023-07-16T07:22:41;96778.16;;;32.80;53.70
24302;BME280;12421;49.732;20.078;2023-07-16T07:44:10;96763.91;;;34.41;49.56
24302;BME280;12421;49.732;20.078;2023-07-16T07:54:36;96768.63;;;34.90;48.08
24302;BME280;12421;49.732;20.078;2023-07-16T08:04:48;96780.82;;;35.00;46.76
24302;BME280;12421;49.732;20.078;2023-07-16T08:15:13;96791.41;;;35.14;46.55
24302;BME280;12421;49.732;20.078;2023-07-16T08:25:25;96802.52;;;35.25;45.77
24302;BME280;12421;49.732;20.078;2023-07-16T08:35:33;96819.34;;;34.54;46.09
24302;BME280;12421;49.732;20.078;2023-07-16T08:45:50;96824.48;;;33.64;45.17
24302;BME280;12421;49.732;20.078;2023-07-16T08:56:05;96827.36;;;33.07;45.92
24302;BME280;12421;49.732;20.078;2023-07-16T09:06:13;96825.14;;;32.71;45.97
24302;BME280;12421;49.732;20.078;2023-07-16T09:16:24;96821.88;;;32.58;45.35
24302;BME280;12421;49.732;20.078;2023-07-16T09:26:47;96823.52;;;32.21;44.32
24302;BME280;12421;49.732;20.078;2023-07-16T09:37:05;96821.89;;;31.68;46.37
24302;BME280;12421;49.732;20.078;2023-07-16T09:47:30;96825.33;;;31.58;46.08
24302;BME280;12421;49.732;20.078;2023-07-16T10:08:01;96835.93;;;31.40;45.83
24302;BME280;12421;49.732;20.078;2023-07-16T10:18:22;96838.76;;;30.87;47.39
24302;BME280;12421;49.732;20.078;2023-07-16T10:28:47;96834.50;;;30.90;47.05
24302;BME280;12421;49.732;20.078;2023-07-16T10:38:54;96834.80;;;31.33;46.40
24302;BME280;12421;49.732;20.078;2023-07-16T10:49:11;96833.23;;;31.36;45.95
24302;BME280;12421;49.732;20.078;2023-07-16T10:59:24;96827.97;;;31.66;45.91
24302;BME280;12421;49.732;20.078;2023-07-16T11:10:05;96824.21;;;31.87;44.53
24302;BME280;12421;49.732;20.078;2023-07-16T11:20:32;96824.70;;;31.97;44.71
24302;BME280;12421;49.732;20.078;2023-07-16T11:30:45;96823.25;;;32.17;44.07
24302;BME280;12421;49.732;20.078;2023-07-16T11:40:53;96820.84;;;32.37;43.33
24302;BME280;12421;49.732;20.078;2023-07-16T11:50:56;96819.29;;;32.27;43.58
24302;BME280;12421;49.732;20.078;2023-07-16T12:01:24;96813.15;;;32.18;44.27
24302;BME280;12421;49.732;20.078;2023-07-16T12:11:34;96810.89;;;32.17;43.47
24302;BME280;12421;49.732;20.078;2023-07-16T12:21:49;96802.04;;;32.22;43.49
24302;BME280;12421;49.732;20.078;2023-07-16T12:31:57;96799.95;;;32.16;42.55
24302;BME280;12421;49.732;20.078;2023-07-16T12:42:13;96788.23;;;32.14;43.02
24302;BME280;12421;49.732;20.078;2023-07-16T12:52:30;96792.72;;;32.32;43.58
24302;BME280;12421;49.732;20.078;2023-07-16T13:02:54;96791.36;;;32.65;43.82
24302;BME280;12421;49.732;20.078;2023-07-16T13:23:23;96789.39;;;32.32;46.31
24302;BME280;12421;49.732;20.078;2023-07-16T13:33:33;96799.23;;;31.95;48.80
24302;BME280;12421;49.732;20.078;2023-07-16T13:43:41;96799.36;;;31.67;50.29
24302;BME280;12421;49.732;20.078;2023-07-16T13:53:48;96792.08;;;31.56;51.51
24302;BME280;12421;49.732;20.078;2023-07-16T14:04:13;96797.02;;;31.45;52.15
24302;BME280;12421;49.732;20.078;2023-07-16T14:14:23;96792.58;;;31.62;53.23
24302;BME280;12421;49.732;20.078;2023-07-16T14:24:46;96789.30;;;31.88;49.22
24302;BME280;12421;49.732;20.078;2023-07-16T14:34:55;96788.00;;;31.88;49.83
24302;BME280;12421;49.732;20.078;2023-07-16T14:45:02;96777.66;;;31.73;46.86
24302;BME280;12421;49.732;20.078;2023-07-16T14:55:30;96766.60;;;31.78;47.69
24302;BME280;12421;49.732;20.078;2023-07-16T15:05:35;96755.66;;;31.86;47.63
24302;BME280;12421;49.732;20.078;2023-07-16T15:15:55;96738.77;;;31.81;47.90
24302;BME280;12421;49.732;20.078;2023-07-16T15:26:51;96728.94;;;31.74;46.84
24302;BME280;12421;49.732;20.078;2023-07-16T15:37:06;96721.52;;;31.68;47.54
24302;BME280;12421;49.732;20.078;2023-07-16T15:47:21;96716.89;;;31.62;47.51
24302;BME280;12421;49.732;20.078;2023-07-16T15:57:30;96724.58;;;31.57;46.14
24302;BME280;12421;49.732;20.078;2023-07-16T16:07:48;96727.80;;;31.60;46.99
24302;BME280;12421;49.732;20.078;2023-07-16T16:18:08;96734.39;;;31.54;47.15
24302;BME280;12421;49.732;20.078;2023-07-16T16:28:12;96739.72;;;31.25;47.64
24302;BME280;12421;49.732;20.078;2023-07-16T16:38:26;96749.60;;;30.33;49.75
24302;BME280;12421;49.732;20.078;2023-07-16T16:48:30;96744.30;;;29.52;52.36
24302;BME280;12421;49.732;20.078;2023-07-16T16:58:57;96761.84;;;28.85;54.84
24302;BME280;12421;49.732;20.078;2023-07-16T17:09:03;96760.73;;;28.16;57.29
24302;BME280;12421;49.732;20.078;2023-07-16T17:19:32;96756.66;;;27.67;59.63
24302;BME280;12421;49.732;20.078;2023-07-16T17:29:39;96754.79;;;26.96;61.12
24302;BME280;12421;49.732;20.078;2023-07-16T17:39:57;96767.72;;;26.42;63.36
24302;BME280;12421;49.732;20.078;2023-07-16T17:50:14;96788.38;;;25.97;65.15
24302;BME280;12421;49.732;20.078;2023-07-16T18:00:42;96807.13;;;25.80;66.57
24302;BME280;12421;49.732;20.078;2023-07-16T18:10:49;96798.20;;;25.72;67.36
24302;BME280;12421;49.732;20.078;2023-07-16T18:21:17;96820.04;;;25.93;67.78
24302;BME280;12421;49.732;20.078;2023-07-16T18:31:34;96821.02;;;26.09;67.74
24302;BME280;12421;49.732;20.078;2023-07-16T18:41:58;96841.67;;;25.92;69.00
24302;BME280;12421;49.732;20.078;2023-07-16T18:52:35;96857.61;;;25.66;69.45
24302;BME280;12421;49.732;20.078;2023-07-16T19:13:39;96877.45;;;25.07;70.49
24302;BME280;12421;49.732;20.078;2023-07-16T19:34:38;96888.40;;;24.46;71.95
24302;BME280;12421;49.732;20.078;2023-07-16T19:44:56;96892.75;;;24.05;72.84
24302;BME280;12421;49.732;20.078;2023-07-16T19:55:23;96899.52;;;23.78;73.86
24302;BME280;12421;49.732;20.078;2023-07-16T20:16:10;96904.04;;;23.20;75.49
24302;BME280;12421;49.732;20.078;2023-07-16T20:26:49;96912.32;;;22.93;75.99
24302;BME280;12421;49.732;20.078;2023-07-16T20:37:17;96913.61;;;22.60;76.40
24302;BME280;12421;49.732;20.078;2023-07-16T20:47:48;96930.46;;;22.31;77.28
24302;BME280;12421;49.732;20.078;2023-07-16T20:58:35;96949.14;;;22.18;78.19
24302;BME280;12421;49.732;20.078;2023-07-16T21:09:10;96953.07;;;21.82;79.08
24302;BME280;12421;49.732;20.078;2023-07-16T21:19:47;96947.77;;;21.48;79.96
24302;BME280;12421;49.732;20.078;2023-07-16T21:30:54;96950.79;;;21.29;80.71
24302;BME280;12421;49.732;20.078;2023-07-16T21:41:19;96951.52;;;21.28;81.04
24302;BME280;12421;49.732;20.078;2023-07-16T21:51:36;96949.80;;;21.20;80.76
24302;BME280;12421;49.732;20.078;2023-07-16T22:24:16;96953.55;;;20.82;81.18
24302;BME280;12421;49.732;20.078;2023-07-16T22:34:52;96954.79;;;20.73;81.64
24302;BME280;12421;49.732;20.078;2023-07-16T22:45:26;96966.37;;;20.51;82.05
24302;BME280;12421;49.732;20.078;2023-07-16T22:56:12;96974.57;;;20.34;82.31
24302;BME280;12421;49.732;20.078;2023-07-16T23:18:25;96973.58;;;20.02;82.76
24302;BME280;12421;49.732;20.078;2023-07-16T23:29:22;96977.34;;;19.83;83.33
24302;BME280;12421;49.732;20.078;2023-07-16T23:40:05;96972.08;;;19.66;83.71
